Metar GG30 METAR message from awiacja.imgw.pl Metar G30 EPKK METAR EPKK 240730Z 26009KT 6000 FEW010 BKN020 12/11 Q1014 =